Pagrindinis puslapis
METAR-TAF:

METAR-TAF

Oro uostai :

Wasilla, Aliaska, Jungtinės Amerikos Valstijos

platuma: 61-34-19N, ilguma: 149-32-26W, Aukštis: 106 m

Dabartinis oras

Ataskaita buvo paskelbta 58 minutes, ne 03:56 UTC
Vėjas 5 kt iš Pietų
Temperatūra 8°C
Drėgmė 100%
Slėgis 984 hPa
Matomumas: 8.0 km
Su prošvaistėmis ne aukštis 300 ft
Apsiniaukę ne aukštis 700 ft
lietus, rūkana

METAR: PAWS 210356Z AUTO 17005KT 5SM -RA BR BKN003 OVC007 08/08 A2905 RMK AO2 SLP842 P0002 T00830083

Laikas: 20:54 (04:54 UTC)


TAF: trūkstamas

Orai ataskaitas ir orų prognozės (METAR, TAF).

turimą stotys yra geltonos ir raudonos taškus žemėlapyje.

Perkelti pele per norėdami pamatyti stoties vardą.

Tada spustelėkite, norėdami matyti oro stebėjimo ir prognozės.

Norėdami pakeisti žemėlapį: spustelėkite ant žalios mygtukų su juodo kryžiaus žemyn,; žalią mygtuką su brūkšneliu, jei norite nutolinti; arba žalių rodyklių gretimoms žemėlapius.


METAR-TAF: